Spring Mountain Youth Camp, Nevada Weather observations

Data are for 60 minute period ending at time listed.
 Day   Time   Solar   Ave.   Ave.  Ave.  Vector  Max.   Baro.   Total    
  of    of     Rad.   Air    Rel.  Wind   Wind   Wind  Press.  Precip.   
Year   Day            Temp.  Hum.  Speed  Dir.   Gust                    
2014   (PST)  Kw/m2    F      %     mph   deg.    mph    mb.     in.     
-------------------------------------------------------------------------
 295    7:00   0.04   42.8    29    2.2     7     3.2   792.1    0.00 
 295    8:00   0.29   52.1    27    2.2   151     5.3   792.7    0.00 
 295    9:00   0.46   55.2    23    2.8   123     8.3   793.2    0.00 
 295   10:00   0.62   55.7    24    5.7   155    10.9   793.4    0.00 
 295   11:00   0.66   57.2    23    5.9   157    12.3   793.6    0.00 
 295   12:00   0.74   58.0    22    6.6   155    12.4   793.5    0.00 
 295   13:00   0.70   59.9    21    5.2   166    11.5   793.3    0.00 
 295   14:00   0.60   60.0    21    4.6   166    11.0   793.3    0.00 
 295   15:00   0.46   59.2    22    2.3   258     6.4   793.5    0.00 
 295   16:00   0.28   56.7    24    3.3   195     7.5   793.5    0.00 
 295   17:00   0.04   51.8    29    4.7   156     8.0   793.4    0.00 
 295   18:00   0.00   52.0    27    1.1   113     4.4   793.4    0.00 
 295   19:00   0.00   53.5    24    0.4   335     1.3   793.6    0.00 
 295   20:00   0.00   52.9    24    3.5   122     6.9   793.6    0.00 
 295   21:00   0.00   52.4    24    4.8   128     7.7   793.8    0.00 
 295   22:00   0.00   52.5    24    5.0   130     8.4   794.0    0.00 
 295   23:00   0.00   52.7    24    6.0   140     9.3   793.9    0.00 
 296    0:00   0.00   52.4    22    5.6   136     8.8   794.0    0.00 
 296    1:00   0.00   52.4    21    5.1   135     8.3   793.9    0.00 
 296    2:00   0.00   53.1    20    4.5   129     8.9   793.8    0.00 
 296    3:00   0.00   52.6    20    4.1   136     7.0   793.5    0.00 
 296    4:00   0.00   52.1    20    5.0   144     8.5   793.4    0.00 
 296    5:00   0.00   53.4    18    6.9   149    11.9   793.5    0.00 
 296    6:00   0.00   52.9    19    5.0   140    12.1   793.6    0.00 

Return to Spring Mountain Youth Camp graphs page.


Western Regional Climate Center,wrcc@dri.edu